sensor_id;sensor_type;location;lat;lon;timestamp;pressure;altitude;pressure_sealevel;temperature;humidity
35435;BME280;21556;55.782;37.528;2023-08-31T00:01:36;99683.75;;;18.07;100.00
35435;BME280;21556;55.782;37.528;2023-08-31T00:04:02;99675.81;;;18.04;100.00
35435;BME280;21556;55.782;37.528;2023-08-31T00:06:30;99679.28;;;18.11;100.00
35435;BME280;21556;55.782;37.528;2023-08-31T00:08:56;99679.88;;;18.29;100.00
35435;BME280;21556;55.782;37.528;2023-08-31T00:11:22;99680.13;;;18.11;100.00
35435;BME280;21556;55.782;37.528;2023-08-31T00:13:49;99682.59;;;18.25;100.00
35435;BME280;21556;55.782;37.528;2023-08-31T00:16:15;99683.22;;;18.41;100.00
35435;BME280;21556;55.782;37.528;2023-08-31T00:18:42;99685.13;;;18.33;100.00
35435;BME280;21556;55.782;37.528;2023-08-31T00:21:08;99679.66;;;18.43;100.00
35435;BME280;21556;55.782;37.528;2023-08-31T00:23:34;99689.78;;;18.18;100.00
35435;BME280;21556;55.782;37.528;2023-08-31T00:26:03;99694.00;;;18.32;100.00
35435;BME280;21556;55.782;37.528;2023-08-31T00:28:29;99691.28;;;18.38;100.00
35435;BME280;21556;55.782;37.528;2023-08-31T00:30:55;99688.75;;;18.28;100.00
35435;BME280;21556;55.782;37.528;2023-08-31T00:33:21;99691.84;;;17.96;100.00
35435;BME280;21556;55.782;37.528;2023-08-31T00:35:47;99687.41;;;17.97;100.00
35435;BME280;21556;55.782;37.528;2023-08-31T00:38:14;99684.34;;;17.60;100.00
35435;BME280;21556;55.782;37.528;2023-08-31T00:40:41;99685.75;;;17.90;100.00
35435;BME280;21556;55.782;37.528;2023-08-31T00:43:10;99691.78;;;18.02;100.00
35435;BME280;21556;55.782;37.528;2023-08-31T00:45:37;99689.13;;;18.02;100.00
35435;BME280;21556;55.782;37.528;2023-08-31T00:48:07;99693.81;;;17.82;100.00
35435;BME280;21556;55.782;37.528;2023-08-31T00:50:34;99691.66;;;18.10;100.00
35435;BME280;21556;55.782;37.528;2023-08-31T00:53:03;99692.72;;;17.98;100.00
35435;BME280;21556;55.782;37.528;2023-08-31T00:55:32;99695.44;;;17.94;100.00
35435;BME280;21556;55.782;37.528;2023-08-31T00:57:59;99684.53;;;17.44;100.00
35435;BME280;21556;55.782;37.528;2023-08-31T01:00:33;99689.16;;;17.99;100.00
35435;BME280;21556;55.782;37.528;2023-08-31T01:03:13;99688.28;;;17.99;100.00
35435;BME280;21556;55.782;37.528;2023-08-31T01:06:01;99680.97;;;18.16;100.00
35435;BME280;21556;55.782;37.528;2023-08-31T01:08:59;99685.44;;;18.13;100.00
35435;BME280;21556;55.782;37.528;2023-08-31T01:11:36;99691.75;;;18.06;100.00
35435;BME280;21556;55.782;37.528;2023-08-31T01:14:11;99693.34;;;18.17;100.00
35435;BME280;21556;55.782;37.528;2023-08-31T01:16:38;99691.00;;;17.93;100.00
35435;BME280;21556;55.782;37.528;2023-08-31T01:19:24;99690.22;;;17.86;100.00
35435;BME280;21556;55.782;37.528;2023-08-31T01:22:00;99690.69;;;18.17;100.00
35435;BME280;21556;55.782;37.528;2023-08-31T01:24:31;99693.41;;;18.13;100.00
35435;BME280;21556;55.782;37.528;2023-08-31T01:26:57;99683.75;;;18.07;100.00
35435;BME280;21556;55.782;37.528;2023-08-31T01:29:23;99690.06;;;17.97;100.00
35435;BME280;21556;55.782;37.528;2023-08-31T01:31:50;99687.59;;;17.85;100.00
35435;BME280;21556;55.782;37.528;2023-08-31T01:34:16;99684.88;;;17.91;100.00
35435;BME280;21556;55.782;37.528;2023-08-31T01:36:46;99682.78;;;18.11;100.00
35435;BME280;21556;55.782;37.528;2023-08-31T01:39:23;99676.66;;;18.09;100.00
35435;BME280;21556;55.782;37.528;2023-08-31T01:41:56;99677.72;;;17.96;100.00
35435;BME280;21556;55.782;37.528;2023-08-31T01:44:23;99675.97;;;17.93;100.00
35435;BME280;21556;55.782;37.528;2023-08-31T01:46:52;99671.59;;;17.89;100.00
35435;BME280;21556;55.782;37.528;2023-08-31T01:49:26;99676.09;;;17.83;100.00
35435;BME280;21556;55.782;37.528;2023-08-31T01:51:53;99678.63;;;17.93;100.00
35435;BME280;21556;55.782;37.528;2023-08-31T01:54:20;99675.13;;;17.90;100.00
35435;BME280;21556;55.782;37.528;2023-08-31T01:56:47;99677.06;;;17.80;100.00
35435;BME280;21556;55.782;37.528;2023-08-31T01:59:13;99674.19;;;17.95;100.00
35435;BME280;21556;55.782;37.528;2023-08-31T02:01:39;99671.44;;;18.01;100.00
35435;BME280;21556;55.782;37.528;2023-08-31T02:04:08;99678.50;;;18.02;100.00
35435;BME280;21556;55.782;37.528;2023-08-31T02:06:37;99679.66;;;17.82;100.00
35435;BME280;21556;55.782;37.528;2023-08-31T02:09:03;99674.09;;;18.01;100.00
35435;BME280;21556;55.782;37.528;2023-08-31T02:11:30;99678.72;;;17.86;100.00
35435;BME280;21556;55.782;37.528;2023-08-31T02:13:58;99677.78;;;17.90;100.00
35435;BME280;21556;55.782;37.528;2023-08-31T02:16:24;99675.38;;;17.70;100.00
35435;BME280;21556;55.782;37.528;2023-08-31T02:18:50;99668.19;;;17.81;100.00
35435;BME280;21556;55.782;37.528;2023-08-31T02:21:17;99679.19;;;17.46;100.00
35435;BME280;21556;55.782;37.528;2023-08-31T02:23:43;99670.28;;;17.54;100.00
35435;BME280;21556;55.782;37.528;2023-08-31T02:26:12;99679.78;;;17.71;100.00
35435;BME280;21556;55.782;37.528;2023-08-31T02:28:39;99675.13;;;17.91;100.00
35435;BME280;21556;55.782;37.528;2023-08-31T02:31:10;99678.13;;;17.62;100.00
35435;BME280;21556;55.782;37.528;2023-08-31T02:33:37;99682.28;;;17.85;100.00
35435;BME280;21556;55.782;37.528;2023-08-31T02:36:03;99682.31;;;17.82;100.00
35435;BME280;21556;55.782;37.528;2023-08-31T02:38:29;99691.81;;;17.99;100.00
35435;BME280;21556;55.782;37.528;2023-08-31T02:40:56;99677.84;;;17.87;100.00
35435;BME280;21556;55.782;37.528;2023-08-31T02:43:25;99685.94;;;17.71;100.00
35435;BME280;21556;55.782;37.528;2023-08-31T02:46:02;99684.94;;;17.85;100.00
35435;BME280;21556;55.782;37.528;2023-08-31T02:48:29;99688.59;;;17.73;100.00
35435;BME280;21556;55.782;37.528;2023-08-31T02:50:57;99682.09;;;17.24;100.00
35435;BME280;21556;55.782;37.528;2023-08-31T02:53:27;99688.63;;;17.68;100.00
35435;BME280;21556;55.782;37.528;2023-08-31T02:55:53;99678.06;;;17.67;100.00
35435;BME280;21556;55.782;37.528;2023-08-31T02:58:20;99696.66;;;17.64;100.00
35435;BME280;21556;55.782;37.528;2023-08-31T03:00:47;99688.72;;;17.65;100.00
35435;BME280;21556;55.782;37.528;2023-08-31T03:03:19;99682.41;;;17.77;100.00
35435;BME280;21556;55.782;37.528;2023-08-31T03:05:46;99674.47;;;17.72;100.00
35435;BME280;21556;55.782;37.528;2023-08-31T03:08:13;99678.06;;;17.67;100.00
35435;BME280;21556;55.782;37.528;2023-08-31T03:10:42;99679.69;;;17.80;100.00
35435;BME280;21556;55.782;37.528;2023-08-31T03:13:14;99668.63;;;17.43;100.00
35435;BME280;21556;55.782;37.528;2023-08-31T03:15:40;99664.16;;;17.48;100.00
35435;BME280;21556;55.782;37.528;2023-08-31T03:18:06;99658.81;;;17.51;100.00
35435;BME280;21556;55.782;37.528;2023-08-31T03:20:33;99655.31;;;17.47;100.00
35435;BME280;21556;55.782;37.528;2023-08-31T03:23:01;99662.44;;;17.44;100.00
35435;BME280;21556;55.782;37.528;2023-08-31T03:25:32;99672.19;;;17.43;100.00
35435;BME280;21556;55.782;37.528;2023-08-31T03:27:58;99668.88;;;17.20;100.00
35435;BME280;21556;55.782;37.528;2023-08-31T03:30:25;99668.63;;;17.43;100.00
35435;BME280;21556;55.782;37.528;2023-08-31T03:32:51;99670.28;;;17.54;100.00
35435;BME280;21556;55.782;37.528;2023-08-31T03:35:17;99676.47;;;17.52;100.00
35435;BME280;21556;55.782;37.528;2023-08-31T03:37:47;99677.28;;;17.57;100.00
35435;BME280;21556;55.782;37.528;2023-08-31T03:40:14;99668.91;;;17.17;100.00
35435;BME280;21556;55.782;37.528;2023-08-31T03:42:43;99675.19;;;17.08;100.00
35435;BME280;21556;55.782;37.528;2023-08-31T03:45:40;99665.84;;;17.53;100.00
35435;BME280;21556;55.782;37.528;2023-08-31T03:48:41;99681.00;;;17.44;100.00
35435;BME280;21556;55.782;37.528;2023-08-31T03:51:19;99685.50;;;17.37;100.00
35435;BME280;21556;55.782;37.528;2023-08-31T03:53:54;99687.66;;;17.78;100.00
35435;BME280;21556;55.782;37.528;2023-08-31T03:56:23;99683.22;;;17.80;100.00
35435;BME280;21556;55.782;37.528;2023-08-31T03:58:53;99693.13;;;17.65;100.00
35435;BME280;21556;55.782;37.528;2023-08-31T04:01:20;99687.09;;;17.52;100.00
35435;BME280;21556;55.782;37.528;2023-08-31T04:03:49;99691.50;;;17.50;100.00
35435;BME280;21556;55.782;37.528;2023-08-31T04:06:22;99690.31;;;17.78;100.00
35435;BME280;21556;55.782;37.528;2023-08-31T04:08:48;99691.13;;;17.85;100.00
35435;BME280;21556;55.782;37.528;2023-08-31T04:11:15;99685.75;;;17.91;100.00
35435;BME280;21556;55.782;37.528;2023-08-31T04:13:41;99696.59;;;17.68;100.00
35435;BME280;21556;55.782;37.528;2023-08-31T04:16:08;99688.59;;;17.76;100.00
35435;BME280;21556;55.782;37.528;2023-08-31T04:18:42;99692.84;;;17.89;100.00
35435;BME280;21556;55.782;37.528;2023-08-31T04:21:08;99696.19;;;18.05;100.00
35435;BME280;21556;55.782;37.528;2023-08-31T04:23:37;99695.97;;;18.20;100.00
35435;BME280;21556;55.782;37.528;2023-08-31T04:26:13;99704.84;;;18.18;100.00
35435;BME280;21556;55.782;37.528;2023-08-31T04:28:40;99699.56;;;18.15;100.00
35435;BME280;21556;55.782;37.528;2023-08-31T04:31:07;99706.66;;;18.16;100.00
35435;BME280;21556;55.782;37.528;2023-08-31T04:33:38;99700.31;;;18.24;100.00
35435;BME280;21556;55.782;37.528;2023-08-31T04:36:07;99702.06;;;18.25;100.00
35435;BME280;21556;55.782;37.528;2023-08-31T04:38:34;99700.28;;;18.26;100.00
35435;BME280;21556;55.782;37.528;2023-08-31T04:41:04;99716.28;;;18.23;100.00
35435;BME280;21556;55.782;37.528;2023-08-31T04:43:30;99711.13;;;18.11;100.00
35435;BME280;21556;55.782;37.528;2023-08-31T04:45:57;99710.84;;;18.31;100.00
35435;BME280;21556;55.782;37.528;2023-08-31T04:48:23;99701.22;;;18.23;100.00
35435;BME280;21556;55.782;37.528;2023-08-31T04:50:56;99695.50;;;18.49;100.00
35435;BME280;21556;55.782;37.528;2023-08-31T04:53:27;99693.69;;;18.51;100.00
35435;BME280;21556;55.782;37.528;2023-08-31T04:55:53;99695.88;;;18.26;100.00
35435;BME280;21556;55.782;37.528;2023-08-31T04:58:19;99694.75;;;18.41;100.00
35435;BME280;21556;55.782;37.528;2023-08-31T05:00:45;99699.13;;;18.45;100.00
35435;BME280;21556;55.782;37.528;2023-08-31T05:03:15;99699.44;;;18.83;100.00
35435;BME280;21556;55.782;37.528;2023-08-31T05:05:42;99693.19;;;18.84;100.00
35435;BME280;21556;55.782;37.528;2023-08-31T05:08:08;99696.53;;;18.95;100.00
35435;BME280;21556;55.782;37.528;2023-08-31T05:10:37;99695.56;;;19.00;100.00
35435;BME280;21556;55.782;37.528;2023-08-31T05:13:03;99699.59;;;19.23;100.00
35435;BME280;21556;55.782;37.528;2023-08-31T05:15:31;99700.72;;;19.10;100.00
35435;BME280;21556;55.782;37.528;2023-08-31T05:17:59;99695.59;;;18.99;100.00
35435;BME280;21556;55.782;37.528;2023-08-31T05:20:25;99691.47;;;19.31;100.00
35435;BME280;21556;55.782;37.528;2023-08-31T05:22:56;99695.81;;;18.88;100.00
35435;BME280;21556;55.782;37.528;2023-08-31T05:25:26;99694.25;;;19.23;100.00
35435;BME280;21556;55.782;37.528;2023-08-31T05:27:52;99697.59;;;19.34;100.00
35435;BME280;21556;55.782;37.528;2023-08-31T05:30:18;99689.50;;;19.40;100.00
35435;BME280;21556;55.782;37.528;2023-08-31T05:32:45;99695.16;;;19.70;100.00
35435;BME280;21556;55.782;37.528;2023-08-31T05:35:11;99714.06;;;19.55;100.00
35435;BME280;21556;55.782;37.528;2023-08-31T05:37:37;99718.38;;;20.05;100.00
35435;BME280;21556;55.782;37.528;2023-08-31T05:40:04;99711.69;;;20.26;100.00
35435;BME280;21556;55.782;37.528;2023-08-31T05:42:35;99706.75;;;20.48;100.00
35435;BME280;21556;55.782;37.528;2023-08-31T05:45:01;99716.28;;;20.58;100.00
35435;BME280;21556;55.782;37.528;2023-08-31T05:47:29;99711.16;;;20.86;100.00
35435;BME280;21556;55.782;37.528;2023-08-31T05:49:55;99717.22;;;20.93;100.00
35435;BME280;21556;55.782;37.528;2023-08-31T05:52:21;99718.81;;;21.00;100.00
35435;BME280;21556;55.782;37.528;2023-08-31T05:54:50;99719.41;;;21.11;100.00
35435;BME280;21556;55.782;37.528;2023-08-31T05:57:19;99718.97;;;21.28;100.00
35435;BME280;21556;55.782;37.528;2023-08-31T05:59:45;99721.50;;;20.99;100.00
35435;BME280;21556;55.782;37.528;2023-08-31T06:02:14;99728.56;;;21.01;100.00
35435;BME280;21556;55.782;37.528;2023-08-31T06:04:41;99725.44;;;21.52;100.00
35435;BME280;21556;55.782;37.528;2023-08-31T06:07:10;99726.50;;;21.78;100.00
35435;BME280;21556;55.782;37.528;2023-08-31T06:09:36;99736.53;;;22.01;100.00
35435;BME280;21556;55.782;37.528;2023-08-31T06:12:05;99736.47;;;22.33;100.00
35435;BME280;21556;55.782;37.528;2023-08-31T06:14:34;99740.19;;;21.97;100.00
35435;BME280;21556;55.782;37.528;2023-08-31T06:17:00;99742.63;;;22.35;100.00
35435;BME280;21556;55.782;37.528;2023-08-31T06:19:26;99730.81;;;22.43;100.00
35435;BME280;21556;55.782;37.528;2023-08-31T06:21:55;99730.03;;;22.67;100.00
35435;BME280;21556;55.782;37.528;2023-08-31T06:24:21;99731.66;;;23.51;100.00
35435;BME280;21556;55.782;37.528;2023-08-31T06:26:47;99728.84;;;24.04;100.00
35435;BME280;21556;55.782;37.528;2023-08-31T06:29:13;99719.13;;;24.69;100.00
35435;BME280;21556;55.782;37.528;2023-08-31T06:31:43;99721.13;;;25.69;100.00
35435;BME280;21556;55.782;37.528;2023-08-31T06:34:12;99721.03;;;25.91;100.00
35435;BME280;21556;55.782;37.528;2023-08-31T06:36:38;99707.75;;;26.07;100.00
35435;BME280;21556;55.782;37.528;2023-08-31T06:39:05;99705.56;;;25.96;100.00
35435;BME280;21556;55.782;37.528;2023-08-31T06:41:32;99720.81;;;26.71;100.00
35435;BME280;21556;55.782;37.528;2023-08-31T06:43:58;99715.91;;;26.62;100.00
35435;BME280;21556;55.782;37.528;2023-08-31T06:46:24;99720.44;;;27.15;100.00
35435;BME280;21556;55.782;37.528;2023-08-31T06:48:50;99719.66;;;26.77;100.00
35435;BME280;21556;55.782;37.528;2023-08-31T06:51:16;99724.66;;;27.89;100.00
35435;BME280;21556;55.782;37.528;2023-08-31T06:53:43;99749.50;;;27.26;100.00
35435;BME280;21556;55.782;37.528;2023-08-31T06:56:15;99740.38;;;27.80;100.00
35435;BME280;21556;55.782;37.528;2023-08-31T06:58:44;99731.97;;;28.02;100.00
35435;BME280;21556;55.782;37.528;2023-08-31T07:01:15;99728.72;;;28.29;100.00
35435;BME280;21556;55.782;37.528;2023-08-31T07:03:42;99732.09;;;28.01;100.00
35435;BME280;21556;55.782;37.528;2023-08-31T07:06:08;99735.38;;;28.55;100.00
35435;BME280;21556;55.782;37.528;2023-08-31T07:08:34;99734.75;;;28.82;100.00
35435;BME280;21556;55.782;37.528;2023-08-31T07:11:02;99738.38;;;27.67;100.00
35435;BME280;21556;55.782;37.528;2023-08-31T07:13:28;99728.06;;;28.73;100.00
35435;BME280;21556;55.782;37.528;2023-08-31T07:15:55;99709.78;;;29.68;100.00
35435;BME280;21556;55.782;37.528;2023-08-31T07:18:21;99709.25;;;29.17;100.00
35435;BME280;21556;55.782;37.528;2023-08-31T07:20:47;99708.38;;;28.39;100.00
35435;BME280;21556;55.782;37.528;2023-08-31T07:23:14;99717.19;;;28.59;100.00
35435;BME280;21556;55.782;37.528;2023-08-31T07:25:40;99713.34;;;29.24;100.00
35435;BME280;21556;55.782;37.528;2023-08-31T07:28:08;99722.06;;;28.52;100.00
35435;BME280;21556;55.782;37.528;2023-08-31T07:30:40;99713.50;;;29.21;100.00
35435;BME280;21556;55.782;37.528;2023-08-31T07:33:07;99722.38;;;28.30;100.00
35435;BME280;21556;55.782;37.528;2023-08-31T07:35:33;99721.75;;;27.58;100.00
35435;BME280;21556;55.782;37.528;2023-08-31T07:37:59;99716.34;;;27.93;100.00
35435;BME280;21556;55.782;37.528;2023-08-31T07:40:25;99718.44;;;27.19;100.00
35435;BME280;21556;55.782;37.528;2023-08-31T07:42:51;99718.06;;;28.43;100.00
35435;BME280;21556;55.782;37.528;2023-08-31T07:45:17;99713.84;;;28.85;100.00
35435;BME280;21556;55.782;37.528;2023-08-31T07:47:43;99710.75;;;29.51;100.00
35435;BME280;21556;55.782;37.528;2023-08-31T07:50:10;99714.69;;;29.62;100.00
35435;BME280;21556;55.782;37.528;2023-08-31T07:52:36;99718.16;;;30.35;100.00
35435;BME280;21556;55.782;37.528;2023-08-31T07:55:16;99714.31;;;29.82;100.00
35435;BME280;21556;55.782;37.528;2023-08-31T07:57:43;99712.50;;;30.53;100.00
35435;BME280;21556;55.782;37.528;2023-08-31T08:00:13;99703.91;;;30.46;100.00
35435;BME280;21556;55.782;37.528;2023-08-31T08:02:40;99705.44;;;30.50;100.00
35435;BME280;21556;55.782;37.528;2023-08-31T08:05:11;99697.66;;;30.31;100.00
35435;BME280;21556;55.782;37.528;2023-08-31T08:07:40;99699.03;;;30.65;100.00
35435;BME280;21556;55.782;37.528;2023-08-31T08:10:11;99709.72;;;30.54;98.97
35435;BME280;21556;55.782;37.528;2023-08-31T08:12:46;99699.19;;;30.35;100.00
35435;BME280;21556;55.782;37.528;2023-08-31T08:15:18;99703.56;;;30.38;100.00
35435;BME280;21556;55.782;37.528;2023-08-31T08:18:04;99710.88;;;30.50;100.00
35435;BME280;21556;55.782;37.528;2023-08-31T08:20:31;99700.78;;;30.66;100.00
35435;BME280;21556;55.782;37.528;2023-08-31T08:22:57;99700.75;;;31.21;100.00
35435;BME280;21556;55.782;37.528;2023-08-31T08:25:24;99694.16;;;30.85;100.00
35435;BME280;21556;55.782;37.528;2023-08-31T08:27:50;99692.00;;;30.90;99.06
35435;BME280;21556;55.782;37.528;2023-08-31T08:30:16;99684.16;;;31.12;100.00
35435;BME280;21556;55.782;37.528;2023-08-31T08:32:45;99689.78;;;30.00;100.00
35435;BME280;21556;55.782;37.528;2023-08-31T08:35:11;99699.31;;;30.61;100.00
35435;BME280;21556;55.782;37.528;2023-08-31T08:37:38;99694.88;;;31.01;99.63
35435;BME280;21556;55.782;37.528;2023-08-31T08:40:04;99709.75;;;30.67;100.00
35435;BME280;21556;55.782;37.528;2023-08-31T08:42:30;99716.00;;;31.09;96.74
35435;BME280;21556;55.782;37.528;2023-08-31T08:44:57;99717.31;;;30.76;100.00
35435;BME280;21556;55.782;37.528;2023-08-31T08:47:26;99715.09;;;30.68;100.00
35435;BME280;21556;55.782;37.528;2023-08-31T08:49:54;99716.34;;;30.36;100.00
35435;BME280;21556;55.782;37.528;2023-08-31T08:52:48;99710.63;;;30.40;100.00
35435;BME280;21556;55.782;37.528;2023-08-31T08:55:15;99716.41;;;30.76;98.71
35435;BME280;21556;55.782;37.528;2023-08-31T08:57:44;99712.28;;;30.97;98.20
35435;BME280;21556;55.782;37.528;2023-08-31T09:00:14;99703.38;;;30.68;99.34
35435;BME280;21556;55.782;37.528;2023-08-31T09:02:43;99705.53;;;30.21;100.00
35435;BME280;21556;55.782;37.528;2023-08-31T09:05:13;99708.22;;;30.36;100.00
35435;BME280;21556;55.782;37.528;2023-08-31T09:08:05;99707.81;;;30.42;100.00
35435;BME280;21556;55.782;37.528;2023-08-31T09:10:34;99711.38;;;30.14;100.00
35435;BME280;21556;55.782;37.528;2023-08-31T09:13:02;99714.06;;;30.42;100.00
35435;BME280;21556;55.782;37.528;2023-08-31T09:15:45;99695.34;;;31.21;89.08
35435;BME280;21556;55.782;37.528;2023-08-31T09:18:41;99703.56;;;30.38;98.63
35435;BME280;21556;55.782;37.528;2023-08-31T09:21:07;99705.22;;;30.40;100.00
35435;BME280;21556;55.782;37.528;2023-08-31T09:23:37;99703.56;;;30.38;98.09
35435;BME280;21556;55.782;37.528;2023-08-31T09:26:04;99705.38;;;30.79;95.39
35435;BME280;21556;55.782;37.528;2023-08-31T09:28:30;99704.34;;;30.67;99.58
35435;BME280;21556;55.782;37.528;2023-08-31T09:31:06;99698.06;;;30.93;99.26
35435;BME280;21556;55.782;37.528;2023-08-31T09:33:34;99701.94;;;30.77;100.00
35435;BME280;21556;55.782;37.528;2023-08-31T09:36:02;99691.84;;;31.06;100.00
35435;BME280;21556;55.782;37.528;2023-08-31T09:38:41;99697.88;;;31.36;100.00
35435;BME280;21556;55.782;37.528;2023-08-31T09:41:07;99703.63;;;31.32;94.24
35435;BME280;21556;55.782;37.528;2023-08-31T09:43:33;99716.13;;;30.10;97.76
35435;BME280;21556;55.782;37.528;2023-08-31T09:46:03;99700.81;;;31.59;87.52
35435;BME280;21556;55.782;37.528;2023-08-31T09:48:30;99695.72;;;31.54;89.01
35435;BME280;21556;55.782;37.528;2023-08-31T09:50:57;99682.59;;;31.61;88.63
35435;BME280;21556;55.782;37.528;2023-08-31T09:53:24;99695.09;;;31.63;96.08
35435;BME280;21556;55.782;37.528;2023-08-31T09:55:51;99700.81;;;31.59;89.73
35435;BME280;21556;55.782;37.528;2023-08-31T09:58:23;99706.41;;;31.30;93.25
35435;BME280;21556;55.782;37.528;2023-08-31T10:00:50;99706.47;;;31.94;83.08
35435;BME280;21556;55.782;37.528;2023-08-31T10:03:18;99695.81;;;32.53;79.66
35435;BME280;21556;55.782;37.528;2023-08-31T10:05:50;99693.91;;;32.30;79.77
35435;BME280;21556;55.782;37.528;2023-08-31T10:08:18;99692.03;;;31.55;86.27
35435;BME280;21556;55.782;37.528;2023-08-31T10:10:45;99690.28;;;31.54;90.50
35435;BME280;21556;55.782;37.528;2023-08-31T10:13:15;99677.19;;;31.08;88.86
35435;BME280;21556;55.782;37.528;2023-08-31T10:15:43;99692.88;;;31.30;85.89
35435;BME280;21556;55.782;37.528;2023-08-31T10:18:10;99687.06;;;31.87;77.03
35435;BME280;21556;55.782;37.528;2023-08-31T10:20:42;99683.94;;;32.30;73.31
35435;BME280;21556;55.782;37.528;2023-08-31T10:23:12;99678.50;;;32.67;75.50
35435;BME280;21556;55.782;37.528;2023-08-31T10:28:19;99681.84;;;32.47;69.06
35435;BME280;21556;55.782;37.528;2023-08-31T10:31:06;99669.56;;;32.89;69.05
35435;BME280;21556;55.782;37.528;2023-08-31T10:33:34;99678.81;;;31.89;78.81
35435;BME280;21556;55.782;37.528;2023-08-31T10:36:00;99683.94;;;32.30;76.76
35435;BME280;21556;55.782;37.528;2023-08-31T10:38:31;99678.25;;;31.71;80.08
35435;BME280;21556;55.782;37.528;2023-08-31T10:46:32;99683.47;;;31.61;84.18
35435;BME280;21556;55.782;37.528;2023-08-31T10:51:35;99682.59;;;31.35;84.04
35435;BME280;21556;55.782;37.528;2023-08-31T10:54:13;99683.13;;;30.88;87.41
35435;BME280;21556;55.782;37.528;2023-08-31T10:57:01;99684.16;;;30.17;94.15
35435;BME280;21556;55.782;37.528;2023-08-31T10:59:48;99691.59;;;30.13;95.90
35435;BME280;21556;55.782;37.528;2023-08-31T11:05:07;99680.59;;;29.73;100.00
35435;BME280;21556;55.782;37.528;2023-08-31T11:07:33;99678.94;;;29.57;100.00
35435;BME280;21556;55.782;37.528;2023-08-31T11:10:07;99683.03;;;29.78;95.88
35435;BME280;21556;55.782;37.528;2023-08-31T11:12:34;99676.59;;;29.36;100.00
35435;BME280;21556;55.782;37.528;2023-08-31T11:15:00;99681.81;;;29.54;100.00
35435;BME280;21556;55.782;37.528;2023-08-31T11:17:27;99677.63;;;29.64;97.25
35435;BME280;21556;55.782;37.528;2023-08-31T11:19:54;99678.25;;;29.39;100.00
35435;BME280;21556;55.782;37.528;2023-08-31T11:22:20;99666.28;;;29.57;97.33
35435;BME280;21556;55.782;37.528;2023-08-31T11:24:46;99663.19;;;29.05;100.00
35435;BME280;21556;55.782;37.528;2023-08-31T11:27:19;99665.81;;;28.90;100.00
35435;BME280;21556;55.782;37.528;2023-08-31T11:30:16;99670.19;;;28.93;100.00
35435;BME280;21556;55.782;37.528;2023-08-31T11:32:47;99662.25;;;28.90;100.00
35435;BME280;21556;55.782;37.528;2023-08-31T11:35:17;99677.72;;;29.18;100.00
35435;BME280;21556;55.782;37.528;2023-08-31T11:37:49;99669.19;;;28.64;100.00
35435;BME280;21556;55.782;37.528;2023-08-31T11:40:15;99657.38;;;28.96;100.00
35435;BME280;21556;55.782;37.528;2023-08-31T11:42:41;99653.69;;;28.97;100.00
35435;BME280;21556;55.782;37.528;2023-08-31T11:45:09;99649.44;;;28.63;100.00
35435;BME280;21556;55.782;37.528;2023-08-31T11:47:39;99650.53;;;28.45;100.00
35435;BME280;21556;55.782;37.528;2023-08-31T11:50:07;99651.63;;;28.87;100.00
35435;BME280;21556;55.782;37.528;2023-08-31T11:52:33;99647.66;;;28.78;100.00
35435;BME280;21556;55.782;37.528;2023-08-31T11:54:59;99644.84;;;28.02;100.00
35435;BME280;21556;55.782;37.528;2023-08-31T11:57:26;99640.13;;;28.69;100.00
35435;BME280;21556;55.782;37.528;2023-08-31T11:59:55;99646.50;;;28.52;100.00
35435;BME280;21556;55.782;37.528;2023-08-31T12:02:24;99633.34;;;28.62;100.00
35435;BME280;21556;55.782;37.528;2023-08-31T12:04:50;99622.63;;;28.76;100.00
35435;BME280;21556;55.782;37.528;2023-08-31T12:07:17;99623.59;;;28.59;100.00
35435;BME280;21556;55.782;37.528;2023-08-31T12:09:45;99626.03;;;28.32;100.00
35435;BME280;21556;55.782;37.528;2023-08-31T12:12:13;99619.78;;;28.16;100.00
35435;BME280;21556;55.782;37.528;2023-08-31T12:14:52;99611.59;;;28.33;100.00
35435;BME280;21556;55.782;37.528;2023-08-31T12:17:49;99617.53;;;28.08;100.00
35435;BME280;21556;55.782;37.528;2023-08-31T12:20:26;99623.88;;;28.23;100.00
35435;BME280;21556;55.782;37.528;2023-08-31T12:23:43;99625.25;;;28.14;100.00
35435;BME280;21556;55.782;37.528;2023-08-31T12:27:09;99622.13;;;27.90;100.00
35435;BME280;21556;55.782;37.528;2023-08-31T12:29:39;99623.53;;;27.97;100.00
35435;BME280;21556;55.782;37.528;2023-08-31T12:32:05;99619.34;;;27.92;100.00
35435;BME280;21556;55.782;37.528;2023-08-31T12:37:41;99627.03;;;27.33;100.00
35435;BME280;21556;55.782;37.528;2023-08-31T12:40:54;99616.47;;;27.79;100.00
35435;BME280;21556;55.782;37.528;2023-08-31T12:44:08;99609.53;;;28.38;100.00
35435;BME280;21556;55.782;37.528;2023-08-31T12:46:52;99607.63;;;28.08;100.00
35435;BME280;21556;55.782;37.528;2023-08-31T12:49:20;99606.97;;;28.35;100.00
35435;BME280;21556;55.782;37.528;2023-08-31T12:51:51;99608.31;;;28.44;100.00
35435;BME280;21556;55.782;37.528;2023-08-31T12:54:17;99589.53;;;27.95;100.00
35435;BME280;21556;55.782;37.528;2023-08-31T12:56:43;99597.88;;;28.22;100.00
35435;BME280;21556;55.782;37.528;2023-08-31T12:59:09;99589.97;;;27.87;100.00
35435;BME280;21556;55.782;37.528;2023-08-31T13:01:36;99599.94;;;27.85;100.00
35435;BME280;21556;55.782;37.528;2023-08-31T13:04:02;99593.97;;;27.80;100.00
35435;BME280;21556;55.782;37.528;2023-08-31T13:06:28;99588.41;;;27.83;100.00
35435;BME280;21556;55.782;37.528;2023-08-31T13:08:54;99595.19;;;28.22;100.00
35435;BME280;21556;55.782;37.528;2023-08-31T13:11:20;99594.72;;;28.29;100.00